Portada
METAR-TAF:

METAR-TAF

Aeroports :

Koumac, Nova Caledònia

latitud: 20-34S, longitud: 164-17E, altitud: 23 m

METAR: manca

Hora: 04:09 (17:09 UTC)

Pronòstic

L'informe es va fer fa 12 hores i 9 minuts, a les 05:00 UTC
Pronòstic vàlid del 17 a les 06 UTC al 18 a les 06 UTC
Vent 3 kt del Nord-Est
Visibilitat 10 km o més
Escasses núvols a una alçada de 3500 ft
Cel ennuvolat a una alçada de 5000 ft
Probabilitat 30% :
Temporalment
l' 17 a les 06 UTC al 17 a les 08 UTC
Visibilitat: 4800 m
Escasses núvols a una alçada de 2500 ft, Cumulus congestus.
xàfecs de pluja
Evolucionant progressivament
l' 18 a les 00 UTC al 18 a les 02 UTC
Vent 10 kt del Sud/Sud-Oest
Probabilitat 30% :
Temporalment
l' 18 a les 03 UTC al 18 a les 06 UTC
Escasses núvols a una alçada de 3000 ft, Cumulus congestus.
xàfecs de pluja

TAF: NWWK 170500Z 1706/1806 04003KT 9999 FEW035 BKN050 PROB30 TEMPO 1706/1708 4800 SHRA FEW025TCU BECMG 1800/1802 20010KT PROB30 TEMPO 1803/1806 SHRA FEW030TCU

Observacions i pronòstics meteorològics de més de 4000 aeroports (METAR i TAF).

Les estacions disponibles són els punts grocs i vermells al mapa.

Posi el ratolí al punt desitjat per veure el nom de l'estació.

Feu clic per veure les observacions i els pronòstics meteorològics.

Per canviar el mapa: feu clic els botons verds amb una creu de color negre per apropar; al botó verd amb un guió per allunyar la imatge; o en les fletxes verdes per a mapes adjacents.


METAR-TAF: